sensor_id;sensor_type;location;lat;lon;timestamp;temperature;humidity
76120;DHT22;64852;48.092;-1.640;2023-03-14T00:00:05;12.30;99.90
76120;DHT22;64852;48.092;-1.640;2023-03-14T00:02:31;12.30;99.90
76120;DHT22;64852;48.092;-1.640;2023-03-14T00:04:57;12.30;99.90
76120;DHT22;64852;48.092;-1.640;2023-03-14T00:07:22;12.30;99.90
76120;DHT22;64852;48.092;-1.640;2023-03-14T00:09:50;12.30;99.90
76120;DHT22;64852;48.092;-1.640;2023-03-14T00:12:15;12.20;99.90
76120;DHT22;64852;48.092;-1.640;2023-03-14T00:14:41;12.20;99.90
76120;DHT22;64852;48.092;-1.640;2023-03-14T00:17:07;12.30;99.90
76120;DHT22;64852;48.092;-1.640;2023-03-14T00:19:33;12.30;99.90
76120;DHT22;64852;48.092;-1.640;2023-03-14T00:21:58;12.30;99.90
76120;DHT22;64852;48.092;-1.640;2023-03-14T00:24:24;12.30;99.90
76120;DHT22;64852;48.092;-1.640;2023-03-14T00:26:49;12.30;99.90
76120;DHT22;64852;48.092;-1.640;2023-03-14T00:29:15;12.30;99.90
76120;DHT22;64852;48.092;-1.640;2023-03-14T00:31:40;12.30;99.90
76120;DHT22;64852;48.092;-1.640;2023-03-14T00:34:06;12.20;99.90
76120;DHT22;64852;48.092;-1.640;2023-03-14T00:36:31;11.20;99.90
76120;DHT22;64852;48.092;-1.640;2023-03-14T00:38:57;12.30;99.90
76120;DHT22;64852;48.092;-1.640;2023-03-14T00:41:22;12.20;99.90
76120;DHT22;64852;48.092;-1.640;2023-03-14T00:43:48;12.20;99.90
76120;DHT22;64852;48.092;-1.640;2023-03-14T00:46:14;12.20;99.90
76120;DHT22;64852;48.092;-1.640;2023-03-14T00:48:40;12.20;99.90
76120;DHT22;64852;48.092;-1.640;2023-03-14T00:51:06;12.10;99.90
76120;DHT22;64852;48.092;-1.640;2023-03-14T00:53:31;12.20;99.90
76120;DHT22;64852;48.092;-1.640;2023-03-14T00:56:02;12.10;99.90
76120;DHT22;64852;48.092;-1.640;2023-03-14T00:58:27;12.20;99.90
76120;DHT22;64852;48.092;-1.640;2023-03-14T01:00:53;12.20;99.90
76120;DHT22;64852;48.092;-1.640;2023-03-14T01:03:18;12.10;99.90
76120;DHT22;64852;48.092;-1.640;2023-03-14T01:05:44;12.00;99.90
76120;DHT22;64852;48.092;-1.640;2023-03-14T01:08:09;12.00;99.90
76120;DHT22;64852;48.092;-1.640;2023-03-14T01:10:40;11.90;99.90
76120;DHT22;64852;48.092;-1.640;2023-03-14T01:13:06;11.80;99.90
76120;DHT22;64852;48.092;-1.640;2023-03-14T01:15:32;11.50;99.90
76120;DHT22;64852;48.092;-1.640;2023-03-14T01:17:58;11.30;99.90
76120;DHT22;64852;48.092;-1.640;2023-03-14T01:20:23;11.20;99.90
76120;DHT22;64852;48.092;-1.640;2023-03-14T01:22:49;11.10;99.90
76120;DHT22;64852;48.092;-1.640;2023-03-14T01:25:15;11.00;99.90
76120;DHT22;64852;48.092;-1.640;2023-03-14T01:27:41;11.00;99.90
76120;DHT22;64852;48.092;-1.640;2023-03-14T01:30:07;11.00;99.90
76120;DHT22;64852;48.092;-1.640;2023-03-14T01:32:33;11.00;99.90
76120;DHT22;64852;48.092;-1.640;2023-03-14T01:34:59;11.00;99.90
76120;DHT22;64852;48.092;-1.640;2023-03-14T01:37:24;11.00;99.90
76120;DHT22;64852;48.092;-1.640;2023-03-14T01:39:49;10.90;99.90
76120;DHT22;64852;48.092;-1.640;2023-03-14T01:42:15;11.00;99.90
76120;DHT22;64852;48.092;-1.640;2023-03-14T01:44:51;11.00;99.90
76120;DHT22;64852;48.092;-1.640;2023-03-14T01:47:16;11.00;99.90
76120;DHT22;64852;48.092;-1.640;2023-03-14T01:49:42;10.90;99.90
76120;DHT22;64852;48.092;-1.640;2023-03-14T01:52:10;11.00;99.90
76120;DHT22;64852;48.092;-1.640;2023-03-14T01:54:37;10.80;99.90
76120;DHT22;64852;48.092;-1.640;2023-03-14T01:59:30;11.00;99.90
76120;DHT22;64852;48.092;-1.640;2023-03-14T02:01:56;11.00;99.90
76120;DHT22;64852;48.092;-1.640;2023-03-14T02:04:21;11.00;99.90
76120;DHT22;64852;48.092;-1.640;2023-03-14T02:06:49;10.90;99.90
76120;DHT22;64852;48.092;-1.640;2023-03-14T02:09:14;10.80;99.90
76120;DHT22;64852;48.092;-1.640;2023-03-14T02:11:40;10.80;99.90
76120;DHT22;64852;48.092;-1.640;2023-03-14T02:14:06;10.70;99.90
76120;DHT22;64852;48.092;-1.640;2023-03-14T02:16:32;10.60;99.90
76120;DHT22;64852;48.092;-1.640;2023-03-14T02:18:59;10.60;99.90
76120;DHT22;64852;48.092;-1.640;2023-03-14T02:27:00;10.40;99.90
76120;DHT22;64852;48.092;-1.640;2023-03-14T02:29:26;10.50;99.90
76120;DHT22;64852;48.092;-1.640;2023-03-14T02:31:52;10.20;99.90
76120;DHT22;64852;48.092;-1.640;2023-03-14T02:34:18;10.20;99.90
76120;DHT22;64852;48.092;-1.640;2023-03-14T02:36:43;10.10;99.90
76120;DHT22;64852;48.092;-1.640;2023-03-14T02:39:14;10.10;99.90
76120;DHT22;64852;48.092;-1.640;2023-03-14T02:41:40;10.10;99.90
76120;DHT22;64852;48.092;-1.640;2023-03-14T02:44:07;10.10;99.90
76120;DHT22;64852;48.092;-1.640;2023-03-14T02:46:33;10.20;99.90
76120;DHT22;64852;48.092;-1.640;2023-03-14T02:49:03;10.20;99.90
76120;DHT22;64852;48.092;-1.640;2023-03-14T02:51:29;10.20;99.90
76120;DHT22;64852;48.092;-1.640;2023-03-14T02:53:55;10.20;99.90
76120;DHT22;64852;48.092;-1.640;2023-03-14T02:56:20;10.20;99.90
76120;DHT22;64852;48.092;-1.640;2023-03-14T02:58:46;10.10;99.90
76120;DHT22;64852;48.092;-1.640;2023-03-14T03:01:11;10.00;99.90
76120;DHT22;64852;48.092;-1.640;2023-03-14T03:03:37;9.90;99.90
76120;DHT22;64852;48.092;-1.640;2023-03-14T03:06:03;9.80;99.90
76120;DHT22;64852;48.092;-1.640;2023-03-14T03:08:28;9.80;99.90
76120;DHT22;64852;48.092;-1.640;2023-03-14T03:10:54;9.70;99.90
76120;DHT22;64852;48.092;-1.640;2023-03-14T03:13:19;9.60;99.90
76120;DHT22;64852;48.092;-1.640;2023-03-14T03:15:45;9.50;99.90
76120;DHT22;64852;48.092;-1.640;2023-03-14T03:18:11;9.50;99.90
76120;DHT22;64852;48.092;-1.640;2023-03-14T03:20:36;9.60;99.90
76120;DHT22;64852;48.092;-1.640;2023-03-14T03:23:02;9.60;99.90
76120;DHT22;64852;48.092;-1.640;2023-03-14T03:25:27;9.50;99.90
76120;DHT22;64852;48.092;-1.640;2023-03-14T03:27:53;9.60;99.90
76120;DHT22;64852;48.092;-1.640;2023-03-14T03:30:19;9.60;99.90
76120;DHT22;64852;48.092;-1.640;2023-03-14T03:32:44;9.70;99.90
76120;DHT22;64852;48.092;-1.640;2023-03-14T03:35:10;9.70;99.90
76120;DHT22;64852;48.092;-1.640;2023-03-14T03:37:36;9.70;99.90
76120;DHT22;64852;48.092;-1.640;2023-03-14T03:40:01;9.70;99.90
76120;DHT22;64852;48.092;-1.640;2023-03-14T03:42:29;9.70;99.90
76120;DHT22;64852;48.092;-1.640;2023-03-14T03:44:55;9.70;99.90
76120;DHT22;64852;48.092;-1.640;2023-03-14T03:47:20;9.80;99.90
76120;DHT22;64852;48.092;-1.640;2023-03-14T03:49:46;9.70;99.90
76120;DHT22;64852;48.092;-1.640;2023-03-14T03:52:11;9.70;99.90
76120;DHT22;64852;48.092;-1.640;2023-03-14T03:54:37;9.70;99.90
76120;DHT22;64852;48.092;-1.640;2023-03-14T03:57:02;9.70;99.90
76120;DHT22;64852;48.092;-1.640;2023-03-14T03:59:28;9.70;99.90
76120;DHT22;64852;48.092;-1.640;2023-03-14T04:01:53;9.70;99.90
76120;DHT22;64852;48.092;-1.640;2023-03-14T04:04:19;9.80;99.90
76120;DHT22;64852;48.092;-1.640;2023-03-14T04:06:44;9.70;99.90
76120;DHT22;64852;48.092;-1.640;2023-03-14T04:09:10;9.70;99.90
76120;DHT22;64852;48.092;-1.640;2023-03-14T04:11:36;9.70;99.90
76120;DHT22;64852;48.092;-1.640;2023-03-14T04:14:02;9.60;99.90
76120;DHT22;64852;48.092;-1.640;2023-03-14T04:16:27;9.70;99.90
76120;DHT22;64852;48.092;-1.640;2023-03-14T04:18:53;9.60;99.90
76120;DHT22;64852;48.092;-1.640;2023-03-14T04:21:18;9.70;99.90
76120;DHT22;64852;48.092;-1.640;2023-03-14T04:23:44;9.60;99.90
76120;DHT22;64852;48.092;-1.640;2023-03-14T04:26:10;9.60;99.90
76120;DHT22;64852;48.092;-1.640;2023-03-14T04:28:35;9.50;99.90
76120;DHT22;64852;48.092;-1.640;2023-03-14T04:33:33;9.50;99.90
76120;DHT22;64852;48.092;-1.640;2023-03-14T04:35:59;9.70;99.90
76120;DHT22;64852;48.092;-1.640;2023-03-14T04:38:24;9.40;99.90
76120;DHT22;64852;48.092;-1.640;2023-03-14T04:40:50;9.30;99.90
76120;DHT22;64852;48.092;-1.640;2023-03-14T04:43:16;9.30;99.90
76120;DHT22;64852;48.092;-1.640;2023-03-14T04:45:41;9.40;99.90
76120;DHT22;64852;48.092;-1.640;2023-03-14T04:48:07;9.40;99.90
76120;DHT22;64852;48.092;-1.640;2023-03-14T04:50:32;9.30;99.90
76120;DHT22;64852;48.092;-1.640;2023-03-14T04:52:58;9.40;99.90
76120;DHT22;64852;48.092;-1.640;2023-03-14T04:55:23;9.30;99.90
76120;DHT22;64852;48.092;-1.640;2023-03-14T04:57:49;9.30;99.90
76120;DHT22;64852;48.092;-1.640;2023-03-14T05:00:14;9.30;99.90
76120;DHT22;64852;48.092;-1.640;2023-03-14T05:02:43;9.30;99.90
76120;DHT22;64852;48.092;-1.640;2023-03-14T05:05:09;9.20;99.90
76120;DHT22;64852;48.092;-1.640;2023-03-14T05:07:34;9.30;99.90
76120;DHT22;64852;48.092;-1.640;2023-03-14T05:10:00;9.30;99.90
76120;DHT22;64852;48.092;-1.640;2023-03-14T05:12:25;9.70;99.90
76120;DHT22;64852;48.092;-1.640;2023-03-14T05:14:51;9.20;99.90
76120;DHT22;64852;48.092;-1.640;2023-03-14T05:17:16;8.80;99.90
76120;DHT22;64852;48.092;-1.640;2023-03-14T05:19:43;9.60;99.90
76120;DHT22;64852;48.092;-1.640;2023-03-14T05:22:08;8.80;99.90
76120;DHT22;64852;48.092;-1.640;2023-03-14T05:24:34;9.10;99.90
76120;DHT22;64852;48.092;-1.640;2023-03-14T05:26:59;8.90;99.90
76120;DHT22;64852;48.092;-1.640;2023-03-14T05:29:25;8.90;99.90
76120;DHT22;64852;48.092;-1.640;2023-03-14T05:31:50;9.20;99.90
76120;DHT22;64852;48.092;-1.640;2023-03-14T05:34:16;8.90;99.90
76120;DHT22;64852;48.092;-1.640;2023-03-14T05:36:41;9.30;99.90
76120;DHT22;64852;48.092;-1.640;2023-03-14T05:39:07;8.90;99.90
76120;DHT22;64852;48.092;-1.640;2023-03-14T05:41:32;8.70;99.90
76120;DHT22;64852;48.092;-1.640;2023-03-14T05:43:58;9.30;99.90
76120;DHT22;64852;48.092;-1.640;2023-03-14T05:46:23;9.30;99.90
76120;DHT22;64852;48.092;-1.640;2023-03-14T05:48:49;8.70;99.90
76120;DHT22;64852;48.092;-1.640;2023-03-14T05:51:14;8.70;99.90
76120;DHT22;64852;48.092;-1.640;2023-03-14T05:53:40;8.80;99.90
76120;DHT22;64852;48.092;-1.640;2023-03-14T05:56:05;8.70;99.90
76120;DHT22;64852;48.092;-1.640;2023-03-14T05:58:31;8.50;99.90
76120;DHT22;64852;48.092;-1.640;2023-03-14T06:00:57;8.70;99.90
76120;DHT22;64852;48.092;-1.640;2023-03-14T06:03:22;8.50;99.90
76120;DHT22;64852;48.092;-1.640;2023-03-14T06:05:51;9.50;99.90
76120;DHT22;64852;48.092;-1.640;2023-03-14T06:08:16;8.60;99.90
76120;DHT22;64852;48.092;-1.640;2023-03-14T06:10:42;8.50;99.90
76120;DHT22;64852;48.092;-1.640;2023-03-14T06:13:07;8.90;99.90
76120;DHT22;64852;48.092;-1.640;2023-03-14T06:15:33;8.40;99.90
76120;DHT22;64852;48.092;-1.640;2023-03-14T06:17:58;10.70;99.90
76120;DHT22;64852;48.092;-1.640;2023-03-14T06:20:24;8.80;99.90
76120;DHT22;64852;48.092;-1.640;2023-03-14T06:22:49;9.20;99.90
76120;DHT22;64852;48.092;-1.640;2023-03-14T06:25:15;8.40;99.90
76120;DHT22;64852;48.092;-1.640;2023-03-14T06:27:40;8.40;99.90
76120;DHT22;64852;48.092;-1.640;2023-03-14T06:30:06;8.40;99.90
76120;DHT22;64852;48.092;-1.640;2023-03-14T06:32:32;8.40;99.90
76120;DHT22;64852;48.092;-1.640;2023-03-14T06:34:58;8.50;99.90
76120;DHT22;64852;48.092;-1.640;2023-03-14T06:37:27;8.50;99.90
76120;DHT22;64852;48.092;-1.640;2023-03-14T06:39:53;9.60;99.90
76120;DHT22;64852;48.092;-1.640;2023-03-14T06:42:18;8.40;99.90
76120;DHT22;64852;48.092;-1.640;2023-03-14T06:44:44;9.30;99.90
76120;DHT22;64852;48.092;-1.640;2023-03-14T06:47:09;8.70;99.90
76120;DHT22;64852;48.092;-1.640;2023-03-14T06:49:35;8.80;99.90
76120;DHT22;64852;48.092;-1.640;2023-03-14T06:52:00;8.50;99.90
76120;DHT22;64852;48.092;-1.640;2023-03-14T06:54:26;9.10;99.90
76120;DHT22;64852;48.092;-1.640;2023-03-14T06:56:51;9.40;99.90
76120;DHT22;64852;48.092;-1.640;2023-03-14T06:59:17;8.50;99.90
76120;DHT22;64852;48.092;-1.640;2023-03-14T07:01:42;8.90;99.90
76120;DHT22;64852;48.092;-1.640;2023-03-14T07:04:08;8.50;99.90
76120;DHT22;64852;48.092;-1.640;2023-03-14T07:06:34;9.20;99.90
76120;DHT22;64852;48.092;-1.640;2023-03-14T07:08:59;8.60;99.90
76120;DHT22;64852;48.092;-1.640;2023-03-14T07:11:25;8.50;99.90
76120;DHT22;64852;48.092;-1.640;2023-03-14T07:13:51;8.60;99.90
76120;DHT22;64852;48.092;-1.640;2023-03-14T07:16:17;8.50;99.90
76120;DHT22;64852;48.092;-1.640;2023-03-14T07:18:42;8.40;99.90
76120;DHT22;64852;48.092;-1.640;2023-03-14T07:21:08;8.20;99.90
76120;DHT22;64852;48.092;-1.640;2023-03-14T07:23:34;8.50;99.90
76120;DHT22;64852;48.092;-1.640;2023-03-14T07:26:00;8.40;99.90
76120;DHT22;64852;48.092;-1.640;2023-03-14T07:28:25;8.30;99.90
76120;DHT22;64852;48.092;-1.640;2023-03-14T07:30:52;8.20;99.90
76120;DHT22;64852;48.092;-1.640;2023-03-14T07:33:18;7.60;99.90
76120;DHT22;64852;48.092;-1.640;2023-03-14T07:35:44;8.20;99.90
76120;DHT22;64852;48.092;-1.640;2023-03-14T07:38:09;8.60;99.90
76120;DHT22;64852;48.092;-1.640;2023-03-14T07:40:35;8.40;99.90
76120;DHT22;64852;48.092;-1.640;2023-03-14T07:43:00;9.20;99.90
76120;DHT22;64852;48.092;-1.640;2023-03-14T07:45:26;8.70;99.90
76120;DHT22;64852;48.092;-1.640;2023-03-14T07:47:51;8.90;99.90
76120;DHT22;64852;48.092;-1.640;2023-03-14T07:50:17;8.50;99.90
76120;DHT22;64852;48.092;-1.640;2023-03-14T07:52:42;8.50;99.90
76120;DHT22;64852;48.092;-1.640;2023-03-14T07:55:08;8.40;99.90
76120;DHT22;64852;48.092;-1.640;2023-03-14T07:57:34;8.50;99.90
76120;DHT22;64852;48.092;-1.640;2023-03-14T07:59:59;9.00;99.90
76120;DHT22;64852;48.092;-1.640;2023-03-14T08:02:25;8.50;99.90
76120;DHT22;64852;48.092;-1.640;2023-03-14T08:04:50;8.60;99.90
76120;DHT22;64852;48.092;-1.640;2023-03-14T08:07:16;8.50;99.90
76120;DHT22;64852;48.092;-1.640;2023-03-14T08:09:41;9.30;99.90
76120;DHT22;64852;48.092;-1.640;2023-03-14T08:12:07;8.60;99.90
76120;DHT22;64852;48.092;-1.640;2023-03-14T08:14:33;9.20;99.90
76120;DHT22;64852;48.092;-1.640;2023-03-14T08:16:58;8.90;99.90
76120;DHT22;64852;48.092;-1.640;2023-03-14T08:19:24;6.90;99.90
76120;DHT22;64852;48.092;-1.640;2023-03-14T08:21:49;9.10;99.90
76120;DHT22;64852;48.092;-1.640;2023-03-14T08:24:15;8.70;99.90
76120;DHT22;64852;48.092;-1.640;2023-03-14T08:26:41;8.80;99.90
76120;DHT22;64852;48.092;-1.640;2023-03-14T08:29:06;8.90;99.90
76120;DHT22;64852;48.092;-1.640;2023-03-14T08:31:34;9.10;99.90
76120;DHT22;64852;48.092;-1.640;2023-03-14T08:34:00;9.00;99.90
76120;DHT22;64852;48.092;-1.640;2023-03-14T08:36:25;8.40;99.90
76120;DHT22;64852;48.092;-1.640;2023-03-14T08:38:51;9.20;99.90
76120;DHT22;64852;48.092;-1.640;2023-03-14T08:41:17;9.10;99.90
76120;DHT22;64852;48.092;-1.640;2023-03-14T08:43:42;8.80;99.90
76120;DHT22;64852;48.092;-1.640;2023-03-14T08:46:08;9.20;99.90
76120;DHT22;64852;48.092;-1.640;2023-03-14T08:48:33;9.20;99.90
76120;DHT22;64852;48.092;-1.640;2023-03-14T08:51:09;8.90;99.90
76120;DHT22;64852;48.092;-1.640;2023-03-14T08:53:36;9.30;99.90
76120;DHT22;64852;48.092;-1.640;2023-03-14T08:56:02;9.30;99.90
76120;DHT22;64852;48.092;-1.640;2023-03-14T08:58:29;9.50;99.90
76120;DHT22;64852;48.092;-1.640;2023-03-14T09:00:54;9.50;99.90
76120;DHT22;64852;48.092;-1.640;2023-03-14T09:03:20;9.60;99.90
76120;DHT22;64852;48.092;-1.640;2023-03-14T09:05:48;10.00;99.90
76120;DHT22;64852;48.092;-1.640;2023-03-14T09:08:14;9.50;99.90
76120;DHT22;64852;48.092;-1.640;2023-03-14T09:10:39;9.70;99.90
76120;DHT22;64852;48.092;-1.640;2023-03-14T09:13:05;9.50;99.90
76120;DHT22;64852;48.092;-1.640;2023-03-14T09:15:30;9.60;99.90
76120;DHT22;64852;48.092;-1.640;2023-03-14T09:17:56;9.70;99.90
76120;DHT22;64852;48.092;-1.640;2023-03-14T09:20:22;9.80;99.90
76120;DHT22;64852;48.092;-1.640;2023-03-14T09:22:47;9.90;99.90
76120;DHT22;64852;48.092;-1.640;2023-03-14T09:25:13;9.90;99.90
76120;DHT22;64852;48.092;-1.640;2023-03-14T09:27:38;10.00;99.90
76120;DHT22;64852;48.092;-1.640;2023-03-14T09:30:04;10.10;99.90
76120;DHT22;64852;48.092;-1.640;2023-03-14T09:32:30;10.20;99.90
76120;DHT22;64852;48.092;-1.640;2023-03-14T09:34:56;10.30;99.90
76120;DHT22;64852;48.092;-1.640;2023-03-14T09:37:22;10.10;99.90
76120;DHT22;64852;48.092;-1.640;2023-03-14T09:39:47;11.90;99.90
76120;DHT22;64852;48.092;-1.640;2023-03-14T09:42:14;10.30;99.90
76120;DHT22;64852;48.092;-1.640;2023-03-14T09:45:14;10.30;99.90
76120;DHT22;64852;48.092;-1.640;2023-03-14T09:47:32;10.30;99.90
76120;DHT22;64852;48.092;-1.640;2023-03-14T09:49:59;10.20;99.90
76120;DHT22;64852;48.092;-1.640;2023-03-14T09:52:28;10.10;99.90
76120;DHT22;64852;48.092;-1.640;2023-03-14T09:54:59;10.10;99.90
76120;DHT22;64852;48.092;-1.640;2023-03-14T09:57:27;10.30;99.90
76120;DHT22;64852;48.092;-1.640;2023-03-14T10:00:05;10.30;99.90
76120;DHT22;64852;48.092;-1.640;2023-03-14T10:02:39;10.30;99.90
76120;DHT22;64852;48.092;-1.640;2023-03-14T10:05:07;10.40;99.90
76120;DHT22;64852;48.092;-1.640;2023-03-14T10:07:33;10.60;99.90
76120;DHT22;64852;48.092;-1.640;2023-03-14T10:09:59;10.60;99.90
76120;DHT22;64852;48.092;-1.640;2023-03-14T10:12:32;10.60;99.90
76120;DHT22;64852;48.092;-1.640;2023-03-14T10:15:00;10.50;99.90
76120;DHT22;64852;48.092;-1.640;2023-03-14T10:17:27;10.70;99.90
76120;DHT22;64852;48.092;-1.640;2023-03-14T10:19:58;10.90;99.90
76120;DHT22;64852;48.092;-1.640;2023-03-14T10:22:25;11.00;99.90
76120;DHT22;64852;48.092;-1.640;2023-03-14T10:24:52;12.60;99.90
76120;DHT22;64852;48.092;-1.640;2023-03-14T10:27:23;11.30;99.90
76120;DHT22;64852;48.092;-1.640;2023-03-14T10:29:54;11.40;99.90
76120;DHT22;64852;48.092;-1.640;2023-03-14T10:32:21;11.10;99.90
76120;DHT22;64852;48.092;-1.640;2023-03-14T10:35:03;10.80;99.90
76120;DHT22;64852;48.092;-1.640;2023-03-14T10:37:29;10.60;99.90
76120;DHT22;64852;48.092;-1.640;2023-03-14T10:39:55;10.60;99.90
76120;DHT22;64852;48.092;-1.640;2023-03-14T10:42:30;10.70;99.90
76120;DHT22;64852;48.092;-1.640;2023-03-14T10:44:58;10.80;99.90
76120;DHT22;64852;48.092;-1.640;2023-03-14T10:47:24;11.00;99.90
76120;DHT22;64852;48.092;-1.640;2023-03-14T10:49:51;11.00;99.90
76120;DHT22;64852;48.092;-1.640;2023-03-14T10:54:53;11.20;99.90
76120;DHT22;64852;48.092;-1.640;2023-03-14T10:57:19;11.30;99.90
76120;DHT22;64852;48.092;-1.640;2023-03-14T10:59:45;11.50;99.90
76120;DHT22;64852;48.092;-1.640;2023-03-14T11:07:33;11.60;99.90
76120;DHT22;64852;48.092;-1.640;2023-03-14T11:15:17;11.70;99.90
76120;DHT22;64852;48.092;-1.640;2023-03-14T11:23:14;12.20;99.90
76120;DHT22;64852;48.092;-1.640;2023-03-14T11:25:43;12.00;99.90
76120;DHT22;64852;48.092;-1.640;2023-03-14T11:28:16;12.00;99.00
76120;DHT22;64852;48.092;-1.640;2023-03-14T11:31:04;12.30;99.90
76120;DHT22;64852;48.092;-1.640;2023-03-14T11:33:34;12.30;97.30
76120;DHT22;64852;48.092;-1.640;2023-03-14T11:36:10;12.30;99.10
76120;DHT22;64852;48.092;-1.640;2023-03-14T11:38:50;12.50;95.40
76120;DHT22;64852;48.092;-1.640;2023-03-14T11:41:39;12.40;93.50
76120;DHT22;64852;48.092;-1.640;2023-03-14T11:44:04;12.40;93.40
76120;DHT22;64852;48.092;-1.640;2023-03-14T11:46:44;12.50;90.50
76120;DHT22;64852;48.092;-1.640;2023-03-14T11:49:30;12.50;85.50
76120;DHT22;64852;48.092;-1.640;2023-03-14T11:52:05;12.80;89.70
76120;DHT22;64852;48.092;-1.640;2023-03-14T11:54:41;13.10;84.20
76120;DHT22;64852;48.092;-1.640;2023-03-14T11:57:15;13.10;84.30
76120;DHT22;64852;48.092;-1.640;2023-03-14T12:02:20;12.80;81.20
76120;DHT22;64852;48.092;-1.640;2023-03-14T12:04:50;12.80;79.70
76120;DHT22;64852;48.092;-1.640;2023-03-14T12:07:20;12.90;76.80
76120;DHT22;64852;48.092;-1.640;2023-03-14T12:09:47;13.00;68.60
76120;DHT22;64852;48.092;-1.640;2023-03-14T12:12:16;12.90;72.80
76120;DHT22;64852;48.092;-1.640;2023-03-14T12:14:44;13.10;67.50
76120;DHT22;64852;48.092;-1.640;2023-03-14T12:17:20;13.00;66.40
76120;DHT22;64852;48.092;-1.640;2023-03-14T12:19:46;13.30;63.40
76120;DHT22;64852;48.092;-1.640;2023-03-14T12:24:40;13.80;63.80
76120;DHT22;64852;48.092;-1.640;2023-03-14T12:27:11;13.70;60.30
76120;DHT22;64852;48.092;-1.640;2023-03-14T12:29:57;13.50;63.00
76120;DHT22;64852;48.092;-1.640;2023-03-14T12:32:24;13.70;63.50
76120;DHT22;64852;48.092;-1.640;2023-03-14T12:34:50;14.30;63.50
76120;DHT22;64852;48.092;-1.640;2023-03-14T12:39:50;15.10;55.60
76120;DHT22;64852;48.092;-1.640;2023-03-14T12:44:47;14.40;56.40
76120;DHT22;64852;48.092;-1.640;2023-03-14T12:49:42;13.70;58.80
76120;DHT22;64852;48.092;-1.640;2023-03-14T12:52:13;13.80;62.80
76120;DHT22;64852;48.092;-1.640;2023-03-14T12:54:53;14.40;60.50
76120;DHT22;64852;48.092;-1.640;2023-03-14T12:57:26;14.70;57.60
76120;DHT22;64852;48.092;-1.640;2023-03-14T12:59:59;14.90;59.60
76120;DHT22;64852;48.092;-1.640;2023-03-14T13:02:29;14.60;56.30
76120;DHT22;64852;48.092;-1.640;2023-03-14T13:05:44;14.60;58.10
76120;DHT22;64852;48.092;-1.640;2023-03-14T13:10:26;15.00;54.40
76120;DHT22;64852;48.092;-1.640;2023-03-14T13:15:39;14.70;56.00
76120;DHT22;64852;48.092;-1.640;2023-03-14T13:21:22;16.00;55.30
76120;DHT22;64852;48.092;-1.640;2023-03-14T13:23:27;16.50;52.30
76120;DHT22;64852;48.092;-1.640;2023-03-14T13:25:53;16.70;50.30
76120;DHT22;64852;48.092;-1.640;2023-03-14T13:28:19;17.10;47.50
76120;DHT22;64852;48.092;-1.640;2023-03-14T13:30:45;16.60;44.70
76120;DHT22;64852;48.092;-1.640;2023-03-14T13:33:15;16.70;47.00
76120;DHT22;64852;48.092;-1.640;2023-03-14T13:35:42;16.70;45.70
76120;DHT22;64852;48.092;-1.640;2023-03-14T13:38:21;16.80;46.30
76120;DHT22;64852;48.092;-1.640;2023-03-14T13:40:48;17.50;45.90
76120;DHT22;64852;48.092;-1.640;2023-03-14T13:43:15;17.60;43.90
76120;DHT22;64852;48.092;-1.640;2023-03-14T13:48:27;17.50;52.00
76120;DHT22;64852;48.092;-1.640;2023-03-14T13:51:04;18.50;57.00
76120;DHT22;64852;48.092;-1.640;2023-03-14T13:53:31;19.20;56.80
76120;DHT22;64852;48.092;-1.640;2023-03-14T13:55:56;19.70;55.20
76120;DHT22;64852;48.092;-1.640;2023-03-14T13:58:27;19.90;54.30
76120;DHT22;64852;48.092;-1.640;2023-03-14T14:00:57;19.90;54.40
76120;DHT22;64852;48.092;-1.640;2023-03-14T14:03:23;19.70;51.90
76120;DHT22;64852;48.092;-1.640;2023-03-14T14:05:49;20.50;54.00
76120;DHT22;64852;48.092;-1.640;2023-03-14T14:08:14;20.50;49.20
76120;DHT22;64852;48.092;-1.640;2023-03-14T14:10:40;20.40;50.00
76120;DHT22;64852;48.092;-1.640;2023-03-14T14:13:06;20.00;48.70
76120;DHT22;64852;48.092;-1.640;2023-03-14T14:15:35;18.90;48.00
76120;DHT22;64852;48.092;-1.640;2023-03-14T14:18:04;17.70;50.20
76120;DHT22;64852;48.092;-1.640;2023-03-14T14:20:32;17.30;52.60
76120;DHT22;64852;48.092;-1.640;2023-03-14T14:23:03;18.00;57.20
76120;DHT22;64852;48.092;-1.640;2023-03-14T14:25:29;18.80;54.30
76120;DHT22;64852;48.092;-1.640;2023-03-14T14:27:55;19.50;53.60
76120;DHT22;64852;48.092;-1.640;2023-03-14T14:32:47;20.60;49.30
76120;DHT22;64852;48.092;-1.640;2023-03-14T14:35:32;20.20;46.60
76120;DHT22;64852;48.092;-1.640;2023-03-14T14:37:58;19.70;49.10
76120;DHT22;64852;48.092;-1.640;2023-03-14T14:40:25;19.40;47.40
76120;DHT22;64852;48.092;-1.640;2023-03-14T14:42:51;19.60;47.90
76120;DHT22;64852;48.092;-1.640;2023-03-14T14:45:17;20.10;49.70
76120;DHT22;64852;48.092;-1.640;2023-03-14T14:50:27;21.40;48.10
76120;DHT22;64852;48.092;-1.640;2023-03-14T14:52:56;21.80;44.50
76120;DHT22;64852;48.092;-1.640;2023-03-14T14:55:21;22.40;47.80
76120;DHT22;64852;48.092;-1.640;2023-03-14T14:57:48;22.30;43.50
76120;DHT22;64852;48.092;-1.640;2023-03-14T15:00:19;21.10;41.80
76120;DHT22;64852;48.092;-1.640;2023-03-14T15:02:45;21.50;47.10
76120;DHT22;64852;48.092;-1.640;2023-03-14T15:05:16;21.10;42.60
76120;DHT22;64852;48.092;-1.640;2023-03-14T15:07:42;21.10;46.10
76120;DHT22;64852;48.092;-1.640;2023-03-14T15:10:11;21.80;45.20
76120;DHT22;64852;48.092;-1.640;2023-03-14T15:12:37;21.80;43.90
76120;DHT22;64852;48.092;-1.640;2023-03-14T15:15:03;21.80;44.70
76120;DHT22;64852;48.092;-1.640;2023-03-14T15:17:29;21.90;40.20
76120;DHT22;64852;48.092;-1.640;2023-03-14T15:19:54;21.90;41.50
76120;DHT22;64852;48.092;-1.640;2023-03-14T15:22:22;21.30;40.80
76120;DHT22;64852;48.092;-1.640;2023-03-14T15:24:48;20.70;39.60
76120;DHT22;64852;48.092;-1.640;2023-03-14T15:27:14;20.60;42.90
76120;DHT22;64852;48.092;-1.640;2023-03-14T15:29:40;20.90;42.00
76120;DHT22;64852;48.092;-1.640;2023-03-14T15:32:06;20.70;41.30
76120;DHT22;64852;48.092;-1.640;2023-03-14T15:34:33;20.10;39.60
76120;DHT22;64852;48.092;-1.640;2023-03-14T15:36:59;19.30;41.20
76120;DHT22;64852;48.092;-1.640;2023-03-14T15:39:24;19.30;42.70
76120;DHT22;64852;48.092;-1.640;2023-03-14T15:41:50;19.00;42.40
76120;DHT22;64852;48.092;-1.640;2023-03-14T15:44:15;18.50;42.80
76120;DHT22;64852;48.092;-1.640;2023-03-14T15:46:41;17.90;43.40
76120;DHT22;64852;48.092;-1.640;2023-03-14T15:49:07;17.50;43.20
76120;DHT22;64852;48.092;-1.640;2023-03-14T15:51:33;17.70;44.60
76120;DHT22;64852;48.092;-1.640;2023-03-14T15:53:59;16.20;44.30
76120;DHT22;64852;48.092;-1.640;2023-03-14T15:56:24;15.40;45.10
76120;DHT22;64852;48.092;-1.640;2023-03-14T15:58:50;15.10;46.20
76120;DHT22;64852;48.092;-1.640;2023-03-14T16:01:16;14.80;46.50
76120;DHT22;64852;48.092;-1.640;2023-03-14T16:03:42;14.60;47.10
76120;DHT22;64852;48.092;-1.640;2023-03-14T16:06:09;14.40;47.70
76120;DHT22;64852;48.092;-1.640;2023-03-14T16:08:34;14.80;47.90
76120;DHT22;64852;48.092;-1.640;2023-03-14T16:11:00;15.00;46.80
76120;DHT22;64852;48.092;-1.640;2023-03-14T16:13:25;14.80;46.80
76120;DHT22;64852;48.092;-1.640;2023-03-14T16:15:55;14.90;47.20
76120;DHT22;64852;48.092;-1.640;2023-03-14T16:18:20;14.40;47.30